sensor_id;sensor_type;location;lat;lon;timestamp;P1;durP1;ratioP1;P2;durP2;ratioP2
65230;SDS011;51813;40.666;16.602;2022-09-03T00:01:56;2.13;;;1.35;;
65230;SDS011;51813;40.666;16.602;2022-09-03T00:04:36;2.25;;;1.33;;
65230;SDS011;51813;40.666;16.602;2022-09-03T00:07:11;3.20;;;1.35;;
65230;SDS011;51813;40.666;16.602;2022-09-03T00:09:45;2.67;;;1.30;;
65230;SDS011;51813;40.666;16.602;2022-09-03T00:12:20;2.83;;;1.40;;
65230;SDS011;51813;40.666;16.602;2022-09-03T00:14:52;2.00;;;1.20;;
65230;SDS011;51813;40.666;16.602;2022-09-03T00:17:24;3.50;;;1.60;;
65230;SDS011;51813;40.666;16.602;2022-09-03T00:22:52;2.38;;;1.60;;
65230;SDS011;51813;40.666;16.602;2022-09-03T00:25:23;3.25;;;1.40;;
65230;SDS011;51813;40.666;16.602;2022-09-03T00:27:59;3.72;;;1.40;;
65230;SDS011;51813;40.666;16.602;2022-09-03T00:30:29;2.70;;;1.35;;
65230;SDS011;51813;40.666;16.602;2022-09-03T00:33:02;2.25;;;1.25;;
65230;SDS011;51813;40.666;16.602;2022-09-03T00:35:38;2.20;;;1.40;;
65230;SDS011;51813;40.666;16.602;2022-09-03T00:38:08;2.35;;;1.40;;
65230;SDS011;51813;40.666;16.602;2022-09-03T00:48:56;2.75;;;1.50;;
65230;SDS011;51813;40.666;16.602;2022-09-03T01:00:34;2.75;;;1.70;;
65230;SDS011;51813;40.666;16.602;2022-09-03T01:10:56;2.95;;;1.60;;
65230;SDS011;51813;40.666;16.602;2022-09-03T01:13:36;3.03;;;1.60;;
65230;SDS011;51813;40.666;16.602;2022-09-03T01:21:58;3.15;;;1.58;;
65230;SDS011;51813;40.666;16.602;2022-09-03T01:30:12;2.65;;;1.50;;
65230;SDS011;51813;40.666;16.602;2022-09-03T01:33:00;2.90;;;1.70;;
65230;SDS011;51813;40.666;16.602;2022-09-03T01:35:45;3.17;;;1.70;;
65230;SDS011;51813;40.666;16.602;2022-09-03T01:46:40;3.35;;;1.80;;
65230;SDS011;51813;40.666;16.602;2022-09-03T01:52:15;2.50;;;1.80;;
65230;SDS011;51813;40.666;16.602;2022-09-03T01:57:54;3.05;;;1.50;;
65230;SDS011;51813;40.666;16.602;2022-09-03T02:00:24;3.65;;;1.73;;
65230;SDS011;51813;40.666;16.602;2022-09-03T02:02:52;3.20;;;1.65;;
65230;SDS011;51813;40.666;16.602;2022-09-03T02:05:23;2.90;;;1.70;;
65230;SDS011;51813;40.666;16.602;2022-09-03T02:07:59;2.53;;;1.75;;
65230;SDS011;51813;40.666;16.602;2022-09-03T02:13:46;2.40;;;1.65;;
65230;SDS011;51813;40.666;16.602;2022-09-03T02:16:13;3.00;;;1.50;;
65230;SDS011;51813;40.666;16.602;2022-09-03T02:18:49;3.55;;;1.40;;
65230;SDS011;51813;40.666;16.602;2022-09-03T02:21:19;2.45;;;1.40;;
65230;SDS011;51813;40.666;16.602;2022-09-03T02:23:46;2.53;;;1.52;;
65230;SDS011;51813;40.666;16.602;2022-09-03T02:26:14;2.35;;;1.50;;
65230;SDS011;51813;40.666;16.602;2022-09-03T02:28:43;3.67;;;1.47;;
65230;SDS011;51813;40.666;16.602;2022-09-03T02:31:09;2.88;;;1.60;;
65230;SDS011;51813;40.666;16.602;2022-09-03T02:33:38;2.90;;;1.60;;
65230;SDS011;51813;40.666;16.602;2022-09-03T02:36:07;2.25;;;1.40;;
65230;SDS011;51813;40.666;16.602;2022-09-03T02:38:35;2.05;;;1.48;;
65230;SDS011;51813;40.666;16.602;2022-09-03T02:41:01;2.83;;;1.77;;
65230;SDS011;51813;40.666;16.602;2022-09-03T02:46:07;3.03;;;1.60;;
65230;SDS011;51813;40.666;16.602;2022-09-03T02:48:36;3.03;;;1.60;;
65230;SDS011;51813;40.666;16.602;2022-09-03T02:51:03;3.47;;;1.60;;
65230;SDS011;51813;40.666;16.602;2022-09-03T02:53:29;3.25;;;1.58;;
65230;SDS011;51813;40.666;16.602;2022-09-03T02:56:00;2.83;;;1.55;;
65230;SDS011;51813;40.666;16.602;2022-09-03T02:58:26;2.08;;;1.30;;
65230;SDS011;51813;40.666;16.602;2022-09-03T03:00:52;2.40;;;1.50;;
65230;SDS011;51813;40.666;16.602;2022-09-03T03:03:19;2.67;;;1.50;;
65230;SDS011;51813;40.666;16.602;2022-09-03T03:05:47;2.35;;;1.60;;
65230;SDS011;51813;40.666;16.602;2022-09-03T03:08:15;2.65;;;1.67;;
65230;SDS011;51813;40.666;16.602;2022-09-03T03:10:48;2.63;;;1.30;;
65230;SDS011;51813;40.666;16.602;2022-09-03T03:15:41;3.58;;;1.40;;
65230;SDS011;51813;40.666;16.602;2022-09-03T03:18:08;3.25;;;1.45;;
65230;SDS011;51813;40.666;16.602;2022-09-03T03:20:38;2.17;;;1.47;;
65230;SDS011;51813;40.666;16.602;2022-09-03T03:23:04;3.35;;;1.60;;
65230;SDS011;51813;40.666;16.602;2022-09-03T03:25:34;2.35;;;1.42;;
65230;SDS011;51813;40.666;16.602;2022-09-03T03:28:02;2.33;;;1.50;;
65230;SDS011;51813;40.666;16.602;2022-09-03T03:30:29;3.13;;;1.80;;
65230;SDS011;51813;40.666;16.602;2022-09-03T03:32:55;2.63;;;1.70;;
65230;SDS011;51813;40.666;16.602;2022-09-03T03:35:21;2.58;;;1.50;;
65230;SDS011;51813;40.666;16.602;2022-09-03T03:37:48;2.20;;;1.40;;
65230;SDS011;51813;40.666;16.602;2022-09-03T03:40:14;2.80;;;1.65;;
65230;SDS011;51813;40.666;16.602;2022-09-03T03:42:40;2.50;;;1.60;;
65230;SDS011;51813;40.666;16.602;2022-09-03T03:45:06;2.47;;;1.42;;
65230;SDS011;51813;40.666;16.602;2022-09-03T03:47:34;3.08;;;1.58;;
65230;SDS011;51813;40.666;16.602;2022-09-03T03:50:00;2.95;;;1.60;;
65230;SDS011;51813;40.666;16.602;2022-09-03T03:52:27;2.15;;;1.40;;
65230;SDS011;51813;40.666;16.602;2022-09-03T03:54:53;2.60;;;1.42;;
65230;SDS011;51813;40.666;16.602;2022-09-03T03:57:19;2.35;;;1.58;;
65230;SDS011;51813;40.666;16.602;2022-09-03T03:59:46;2.90;;;1.48;;
65230;SDS011;51813;40.666;16.602;2022-09-03T04:02:12;2.97;;;1.60;;
65230;SDS011;51813;40.666;16.602;2022-09-03T04:04:38;3.25;;;1.60;;
65230;SDS011;51813;40.666;16.602;2022-09-03T04:07:04;2.30;;;1.55;;
65230;SDS011;51813;40.666;16.602;2022-09-03T04:09:30;2.33;;;1.65;;
65230;SDS011;51813;40.666;16.602;2022-09-03T04:11:56;2.67;;;1.58;;
65230;SDS011;51813;40.666;16.602;2022-09-03T04:14:24;2.85;;;1.45;;
65230;SDS011;51813;40.666;16.602;2022-09-03T04:16:51;4.25;;;1.88;;
65230;SDS011;51813;40.666;16.602;2022-09-03T04:19:20;3.53;;;1.58;;
65230;SDS011;51813;40.666;16.602;2022-09-03T04:21:46;3.13;;;1.67;;
65230;SDS011;51813;40.666;16.602;2022-09-03T04:24:12;3.03;;;1.80;;
65230;SDS011;51813;40.666;16.602;2022-09-03T04:26:38;4.07;;;1.90;;
65230;SDS011;51813;40.666;16.602;2022-09-03T04:29:05;3.22;;;1.70;;
65230;SDS011;51813;40.666;16.602;2022-09-03T04:31:32;3.58;;;1.92;;
65230;SDS011;51813;40.666;16.602;2022-09-03T04:33:59;2.80;;;1.75;;
65230;SDS011;51813;40.666;16.602;2022-09-03T04:36:26;4.05;;;2.05;;
65230;SDS011;51813;40.666;16.602;2022-09-03T04:38:54;3.78;;;2.30;;
65230;SDS011;51813;40.666;16.602;2022-09-03T04:41:25;4.13;;;2.25;;
65230;SDS011;51813;40.666;16.602;2022-09-03T04:43:53;4.72;;;2.22;;
65230;SDS011;51813;40.666;16.602;2022-09-03T04:46:21;3.45;;;2.42;;
65230;SDS011;51813;40.666;16.602;2022-09-03T04:48:50;3.92;;;2.33;;
65230;SDS011;51813;40.666;16.602;2022-09-03T04:51:19;6.70;;;2.67;;
65230;SDS011;51813;40.666;16.602;2022-09-03T04:53:47;5.60;;;2.60;;
65230;SDS011;51813;40.666;16.602;2022-09-03T04:56:20;6.38;;;2.75;;
65230;SDS011;51813;40.666;16.602;2022-09-03T04:58:48;5.97;;;2.65;;
65230;SDS011;51813;40.666;16.602;2022-09-03T05:01:22;5.05;;;2.88;;
65230;SDS011;51813;40.666;16.602;2022-09-03T05:03:50;5.00;;;2.80;;
65230;SDS011;51813;40.666;16.602;2022-09-03T05:06:19;4.95;;;2.70;;
65230;SDS011;51813;40.666;16.602;2022-09-03T05:08:48;4.38;;;2.60;;
65230;SDS011;51813;40.666;16.602;2022-09-03T05:11:15;5.00;;;2.58;;
65230;SDS011;51813;40.666;16.602;2022-09-03T05:13:41;3.97;;;2.50;;
65230;SDS011;51813;40.666;16.602;2022-09-03T05:16:08;4.50;;;2.63;;
65230;SDS011;51813;40.666;16.602;2022-09-03T05:18:37;3.97;;;2.38;;
65230;SDS011;51813;40.666;16.602;2022-09-03T05:21:04;3.78;;;2.28;;
65230;SDS011;51813;40.666;16.602;2022-09-03T05:23:38;3.83;;;2.40;;
65230;SDS011;51813;40.666;16.602;2022-09-03T05:26:07;4.07;;;2.20;;
65230;SDS011;51813;40.666;16.602;2022-09-03T05:28:35;4.78;;;2.08;;
65230;SDS011;51813;40.666;16.602;2022-09-03T05:31:09;4.30;;;2.70;;
65230;SDS011;51813;40.666;16.602;2022-09-03T05:33:37;4.15;;;2.42;;
65230;SDS011;51813;40.666;16.602;2022-09-03T05:36:06;3.60;;;2.30;;
65230;SDS011;51813;40.666;16.602;2022-09-03T05:38:34;4.15;;;2.15;;
65230;SDS011;51813;40.666;16.602;2022-09-03T05:41:03;3.35;;;2.15;;
65230;SDS011;51813;40.666;16.602;2022-09-03T05:43:31;3.88;;;2.22;;
65230;SDS011;51813;40.666;16.602;2022-09-03T05:46:01;4.63;;;2.40;;
65230;SDS011;51813;40.666;16.602;2022-09-03T05:48:29;3.53;;;2.20;;
65230;SDS011;51813;40.666;16.602;2022-09-03T05:50:58;3.40;;;2.20;;
65230;SDS011;51813;40.666;16.602;2022-09-03T05:53:25;3.67;;;2.28;;
65230;SDS011;51813;40.666;16.602;2022-09-03T05:55:57;3.50;;;2.38;;
65230;SDS011;51813;40.666;16.602;2022-09-03T05:58:28;3.55;;;2.08;;
65230;SDS011;51813;40.666;16.602;2022-09-03T06:00:55;4.60;;;2.03;;
65230;SDS011;51813;40.666;16.602;2022-09-03T06:03:21;3.83;;;2.20;;
65230;SDS011;51813;40.666;16.602;2022-09-03T06:05:50;3.67;;;1.92;;
65230;SDS011;51813;40.666;16.602;2022-09-03T06:08:18;3.63;;;2.15;;
65230;SDS011;51813;40.666;16.602;2022-09-03T06:10:44;3.95;;;2.25;;
65230;SDS011;51813;40.666;16.602;2022-09-03T06:13:10;3.70;;;2.13;;
65230;SDS011;51813;40.666;16.602;2022-09-03T06:15:35;4.13;;;2.20;;
65230;SDS011;51813;40.666;16.602;2022-09-03T06:18:02;3.42;;;1.95;;
65230;SDS011;51813;40.666;16.602;2022-09-03T06:20:27;4.30;;;2.38;;
65230;SDS011;51813;40.666;16.602;2022-09-03T06:22:54;4.25;;;2.28;;
65230;SDS011;51813;40.666;16.602;2022-09-03T06:25:20;3.75;;;2.10;;
65230;SDS011;51813;40.666;16.602;2022-09-03T06:27:45;3.72;;;2.20;;
65230;SDS011;51813;40.666;16.602;2022-09-03T06:30:11;3.55;;;2.20;;
65230;SDS011;51813;40.666;16.602;2022-09-03T06:32:47;4.85;;;2.30;;
65230;SDS011;51813;40.666;16.602;2022-09-03T06:35:18;3.00;;;1.98;;
65230;SDS011;51813;40.666;16.602;2022-09-03T06:37:44;3.38;;;2.40;;
65230;SDS011;51813;40.666;16.602;2022-09-03T06:40:10;3.83;;;2.10;;
65230;SDS011;51813;40.666;16.602;2022-09-03T06:42:53;3.92;;;2.10;;
65230;SDS011;51813;40.666;16.602;2022-09-03T06:45:20;3.60;;;2.20;;
65230;SDS011;51813;40.666;16.602;2022-09-03T06:47:45;3.50;;;2.25;;
65230;SDS011;51813;40.666;16.602;2022-09-03T06:50:11;5.13;;;2.30;;
65230;SDS011;51813;40.666;16.602;2022-09-03T06:52:37;4.13;;;2.33;;
65230;SDS011;51813;40.666;16.602;2022-09-03T06:55:03;3.78;;;2.30;;
65230;SDS011;51813;40.666;16.602;2022-09-03T06:57:28;3.30;;;2.28;;
65230;SDS011;51813;40.666;16.602;2022-09-03T06:59:54;4.05;;;2.53;;
65230;SDS011;51813;40.666;16.602;2022-09-03T07:02:20;4.60;;;2.60;;
65230;SDS011;51813;40.666;16.602;2022-09-03T07:04:47;4.07;;;2.40;;
65230;SDS011;51813;40.666;16.602;2022-09-03T07:07:13;3.80;;;2.40;;
65230;SDS011;51813;40.666;16.602;2022-09-03T07:09:40;3.75;;;2.42;;
65230;SDS011;51813;40.666;16.602;2022-09-03T07:12:06;3.20;;;1.92;;
65230;SDS011;51813;40.666;16.602;2022-09-03T07:14:32;4.93;;;2.10;;
65230;SDS011;51813;40.666;16.602;2022-09-03T07:16:57;5.05;;;2.13;;
65230;SDS011;51813;40.666;16.602;2022-09-03T07:19:23;7.05;;;1.80;;
65230;SDS011;51813;40.666;16.602;2022-09-03T07:21:49;4.15;;;1.85;;
65230;SDS011;51813;40.666;16.602;2022-09-03T07:24:14;2.63;;;1.80;;
65230;SDS011;51813;40.666;16.602;2022-09-03T07:26:41;2.95;;;1.50;;
65230;SDS011;51813;40.666;16.602;2022-09-03T07:29:13;3.10;;;1.80;;
65230;SDS011;51813;40.666;16.602;2022-09-03T07:31:41;12.27;;;1.88;;
65230;SDS011;51813;40.666;16.602;2022-09-03T07:34:09;2.58;;;1.60;;
65230;SDS011;51813;40.666;16.602;2022-09-03T07:36:43;5.43;;;1.90;;
65230;SDS011;51813;40.666;16.602;2022-09-03T07:39:15;3.10;;;1.77;;
65230;SDS011;51813;40.666;16.602;2022-09-03T07:41:42;3.78;;;1.80;;
65230;SDS011;51813;40.666;16.602;2022-09-03T07:44:10;3.33;;;1.90;;
65230;SDS011;51813;40.666;16.602;2022-09-03T07:46:40;5.05;;;1.75;;
65230;SDS011;51813;40.666;16.602;2022-09-03T07:49:07;4.32;;;2.03;;
65230;SDS011;51813;40.666;16.602;2022-09-03T07:51:34;2.58;;;1.75;;
65230;SDS011;51813;40.666;16.602;2022-09-03T07:54:03;3.17;;;1.88;;
65230;SDS011;51813;40.666;16.602;2022-09-03T07:56:31;5.88;;;2.00;;
65230;SDS011;51813;40.666;16.602;2022-09-03T07:58:59;3.45;;;2.17;;
65230;SDS011;51813;40.666;16.602;2022-09-03T08:01:26;3.03;;;2.03;;
65230;SDS011;51813;40.666;16.602;2022-09-03T08:03:53;3.00;;;2.00;;
65230;SDS011;51813;40.666;16.602;2022-09-03T08:06:20;4.30;;;1.98;;
65230;SDS011;51813;40.666;16.602;2022-09-03T08:09:09;5.47;;;1.60;;
65230;SDS011;51813;40.666;16.602;2022-09-03T08:11:38;5.03;;;2.45;;
65230;SDS011;51813;40.666;16.602;2022-09-03T08:14:08;2.80;;;2.28;;
65230;SDS011;51813;40.666;16.602;2022-09-03T08:16:39;4.78;;;2.45;;
65230;SDS011;51813;40.666;16.602;2022-09-03T08:19:06;4.38;;;2.28;;
65230;SDS011;51813;40.666;16.602;2022-09-03T08:21:33;4.05;;;2.22;;
65230;SDS011;51813;40.666;16.602;2022-09-03T08:23:59;47.72;;;6.95;;
65230;SDS011;51813;40.666;16.602;2022-09-03T08:26:28;27.50;;;4.82;;
65230;SDS011;51813;40.666;16.602;2022-09-03T08:28:56;29.58;;;3.92;;
65230;SDS011;51813;40.666;16.602;2022-09-03T08:31:22;14.63;;;3.13;;
65230;SDS011;51813;40.666;16.602;2022-09-03T08:33:52;13.60;;;3.30;;
65230;SDS011;51813;40.666;16.602;2022-09-03T08:38:50;9.50;;;2.40;;
65230;SDS011;51813;40.666;16.602;2022-09-03T08:49:22;4.95;;;1.90;;
65230;SDS011;51813;40.666;16.602;2022-09-03T08:51:57;3.15;;;1.65;;
65230;SDS011;51813;40.666;16.602;2022-09-03T08:54:29;4.45;;;1.60;;
65230;SDS011;51813;40.666;16.602;2022-09-03T08:56:58;3.67;;;1.77;;
65230;SDS011;51813;40.666;16.602;2022-09-03T08:59:26;3.50;;;1.65;;
65230;SDS011;51813;40.666;16.602;2022-09-03T09:01:56;3.35;;;1.70;;
65230;SDS011;51813;40.666;16.602;2022-09-03T09:04:57;5.85;;;1.98;;
65230;SDS011;51813;40.666;16.602;2022-09-03T09:07:36;3.33;;;1.50;;
65230;SDS011;51813;40.666;16.602;2022-09-03T09:15:12;6.05;;;1.83;;
65230;SDS011;51813;40.666;16.602;2022-09-03T09:20:55;2.85;;;1.60;;
65230;SDS011;51813;40.666;16.602;2022-09-03T09:23:48;2.80;;;1.60;;
65230;SDS011;51813;40.666;16.602;2022-09-03T09:26:16;2.70;;;1.63;;
65230;SDS011;51813;40.666;16.602;2022-09-03T09:28:44;2.78;;;1.42;;
65230;SDS011;51813;40.666;16.602;2022-09-03T09:31:13;2.70;;;1.70;;
65230;SDS011;51813;40.666;16.602;2022-09-03T09:36:09;3.65;;;1.73;;
65230;SDS011;51813;40.666;16.602;2022-09-03T09:38:39;2.80;;;1.40;;
65230;SDS011;51813;40.666;16.602;2022-09-03T09:43:36;2.63;;;1.60;;
65230;SDS011;51813;40.666;16.602;2022-09-03T09:46:13;2.38;;;1.40;;
65230;SDS011;51813;40.666;16.602;2022-09-03T09:48:45;3.50;;;1.60;;
65230;SDS011;51813;40.666;16.602;2022-09-03T09:54:25;3.03;;;1.60;;
65230;SDS011;51813;40.666;16.602;2022-09-03T09:57:02;2.65;;;1.45;;
65230;SDS011;51813;40.666;16.602;2022-09-03T09:59:29;3.35;;;1.40;;
65230;SDS011;51813;40.666;16.602;2022-09-03T10:02:08;2.58;;;1.20;;
65230;SDS011;51813;40.666;16.602;2022-09-03T10:04:39;2.10;;;1.38;;
65230;SDS011;51813;40.666;16.602;2022-09-03T10:09:56;2.70;;;1.30;;
65230;SDS011;51813;40.666;16.602;2022-09-03T10:21:03;3.72;;;1.60;;
65230;SDS011;51813;40.666;16.602;2022-09-03T10:23:46;4.25;;;1.60;;
65230;SDS011;51813;40.666;16.602;2022-09-03T10:26:15;4.28;;;1.40;;
65230;SDS011;51813;40.666;16.602;2022-09-03T10:28:44;2.08;;;1.30;;
65230;SDS011;51813;40.666;16.602;2022-09-03T10:34:12;3.33;;;1.48;;
65230;SDS011;51813;40.666;16.602;2022-09-03T10:37:01;2.28;;;1.30;;
65230;SDS011;51813;40.666;16.602;2022-09-03T10:39:46;3.67;;;1.42;;
65230;SDS011;51813;40.666;16.602;2022-09-03T10:51:12;3.50;;;1.50;;
65230;SDS011;51813;40.666;16.602;2022-09-03T10:54:07;3.92;;;1.55;;
65230;SDS011;51813;40.666;16.602;2022-09-03T11:05:05;3.22;;;1.25;;
65230;SDS011;51813;40.666;16.602;2022-09-03T11:07:48;3.55;;;1.50;;
65230;SDS011;51813;40.666;16.602;2022-09-03T11:10:28;3.95;;;1.50;;
65230;SDS011;51813;40.666;16.602;2022-09-03T11:15:30;2.45;;;1.40;;
65230;SDS011;51813;40.666;16.602;2022-09-03T11:21:07;2.95;;;1.38;;
65230;SDS011;51813;40.666;16.602;2022-09-03T11:23:39;3.10;;;1.30;;
65230;SDS011;51813;40.666;16.602;2022-09-03T11:26:07;2.40;;;1.38;;
65230;SDS011;51813;40.666;16.602;2022-09-03T11:28:47;2.10;;;1.52;;
65230;SDS011;51813;40.666;16.602;2022-09-03T11:39:38;1.70;;;1.17;;
65230;SDS011;51813;40.666;16.602;2022-09-03T11:42:04;1.95;;;1.30;;
65230;SDS011;51813;40.666;16.602;2022-09-03T11:44:36;2.13;;;1.30;;
65230;SDS011;51813;40.666;16.602;2022-09-03T11:49:45;1.83;;;1.30;;
65230;SDS011;51813;40.666;16.602;2022-09-03T11:52:23;1.95;;;1.13;;
65230;SDS011;51813;40.666;16.602;2022-09-03T11:54:54;2.03;;;1.20;;
65230;SDS011;51813;40.666;16.602;2022-09-03T11:58:08;2.22;;;1.30;;
65230;SDS011;51813;40.666;16.602;2022-09-03T12:00:09;1.85;;;1.10;;
65230;SDS011;51813;40.666;16.602;2022-09-03T12:03:03;2.28;;;1.20;;
65230;SDS011;51813;40.666;16.602;2022-09-03T12:08:11;2.25;;;1.30;;
65230;SDS011;51813;40.666;16.602;2022-09-03T12:11:19;2.00;;;1.20;;
65230;SDS011;51813;40.666;16.602;2022-09-03T12:21:51;1.85;;;1.20;;
65230;SDS011;51813;40.666;16.602;2022-09-03T12:24:18;1.98;;;1.10;;
65230;SDS011;51813;40.666;16.602;2022-09-03T12:26:44;2.40;;;1.30;;
65230;SDS011;51813;40.666;16.602;2022-09-03T12:29:21;1.77;;;1.20;;
65230;SDS011;51813;40.666;16.602;2022-09-03T12:31:49;2.75;;;1.40;;
65230;SDS011;51813;40.666;16.602;2022-09-03T12:34:16;2.70;;;1.40;;
65230;SDS011;51813;40.666;16.602;2022-09-03T12:36:45;3.47;;;1.80;;
65230;SDS011;51813;40.666;16.602;2022-09-03T12:39:17;2.85;;;1.52;;
65230;SDS011;51813;40.666;16.602;2022-09-03T12:47:10;3.05;;;1.80;;
65230;SDS011;51813;40.666;16.602;2022-09-03T12:49:38;4.30;;;1.90;;
65230;SDS011;51813;40.666;16.602;2022-09-03T12:52:50;3.00;;;1.80;;
65230;SDS011;51813;40.666;16.602;2022-09-03T12:57:55;3.72;;;1.85;;
65230;SDS011;51813;40.666;16.602;2022-09-03T13:00:32;3.03;;;1.58;;
65230;SDS011;51813;40.666;16.602;2022-09-03T13:03:03;2.42;;;1.58;;
65230;SDS011;51813;40.666;16.602;2022-09-03T13:08:06;2.35;;;1.58;;
65230;SDS011;51813;40.666;16.602;2022-09-03T13:10:38;2.88;;;1.45;;
65230;SDS011;51813;40.666;16.602;2022-09-03T13:13:16;3.38;;;1.50;;
65230;SDS011;51813;40.666;16.602;2022-09-03T13:23:57;3.50;;;1.60;;
65230;SDS011;51813;40.666;16.602;2022-09-03T13:26:57;2.97;;;1.60;;
65230;SDS011;51813;40.666;16.602;2022-09-03T13:29:41;2.40;;;1.60;;
65230;SDS011;51813;40.666;16.602;2022-09-03T13:34:51;2.50;;;1.60;;
65230;SDS011;51813;40.666;16.602;2022-09-03T13:37:25;1.80;;;1.27;;
65230;SDS011;51813;40.666;16.602;2022-09-03T13:39:56;2.10;;;1.33;;
65230;SDS011;51813;40.666;16.602;2022-09-03T13:42:33;2.35;;;1.38;;
65230;SDS011;51813;40.666;16.602;2022-09-03T13:47:42;2.42;;;1.52;;
65230;SDS011;51813;40.666;16.602;2022-09-03T13:51:28;2.10;;;1.40;;
65230;SDS011;51813;40.666;16.602;2022-09-03T13:53:35;2.45;;;1.33;;
65230;SDS011;51813;40.666;16.602;2022-09-03T14:05:12;2.17;;;1.27;;
65230;SDS011;51813;40.666;16.602;2022-09-03T14:21:38;2.45;;;1.40;;
65230;SDS011;51813;40.666;16.602;2022-09-03T14:27:11;2.47;;;1.33;;
65230;SDS011;51813;40.666;16.602;2022-09-03T14:29:37;1.90;;;1.20;;
65230;SDS011;51813;40.666;16.602;2022-09-03T14:38:26;2.50;;;1.30;;
65230;SDS011;51813;40.666;16.602;2022-09-03T14:40:44;2.28;;;1.30;;
65230;SDS011;51813;40.666;16.602;2022-09-03T14:43:29;2.22;;;1.40;;
65230;SDS011;51813;40.666;16.602;2022-09-03T14:49:58;2.20;;;1.17;;
65230;SDS011;51813;40.666;16.602;2022-09-03T15:03:08;2.20;;;1.30;;
65230;SDS011;51813;40.666;16.602;2022-09-03T15:11:28;2.08;;;1.20;;
65230;SDS011;51813;40.666;16.602;2022-09-03T15:22:26;2.05;;;1.20;;
65230;SDS011;51813;40.666;16.602;2022-09-03T15:25:43;1.83;;;1.20;;
65230;SDS011;51813;40.666;16.602;2022-09-03T15:28:10;2.20;;;1.20;;
65230;SDS011;51813;40.666;16.602;2022-09-03T15:30:53;2.10;;;1.20;;
65230;SDS011;51813;40.666;16.602;2022-09-03T15:33:43;2.33;;;1.15;;
65230;SDS011;51813;40.666;16.602;2022-09-03T15:36:44;2.08;;;1.15;;
65230;SDS011;51813;40.666;16.602;2022-09-03T15:39:17;1.73;;;1.05;;
65230;SDS011;51813;40.666;16.602;2022-09-03T15:42:00;1.73;;;1.10;;
65230;SDS011;51813;40.666;16.602;2022-09-03T15:47:40;2.58;;;1.15;;
65230;SDS011;51813;40.666;16.602;2022-09-03T15:52:58;1.92;;;1.13;;
65230;SDS011;51813;40.666;16.602;2022-09-03T15:55:30;2.85;;;1.33;;
65230;SDS011;51813;40.666;16.602;2022-09-03T16:03:18;2.05;;;1.08;;
65230;SDS011;51813;40.666;16.602;2022-09-03T16:06:15;1.67;;;1.10;;
65230;SDS011;51813;40.666;16.602;2022-09-03T16:08:58;2.17;;;1.10;;
65230;SDS011;51813;40.666;16.602;2022-09-03T16:14:08;3.03;;;1.40;;
65230;SDS011;51813;40.666;16.602;2022-09-03T16:16:49;1.80;;;1.13;;
65230;SDS011;51813;40.666;16.602;2022-09-03T16:19:41;4.75;;;1.10;;
65230;SDS011;51813;40.666;16.602;2022-09-03T16:22:31;2.42;;;1.20;;
65230;SDS011;51813;40.666;16.602;2022-09-03T16:25:24;1.88;;;1.05;;
65230;SDS011;51813;40.666;16.602;2022-09-03T16:28:03;3.33;;;1.20;;
65230;SDS011;51813;40.666;16.602;2022-09-03T16:33:59;1.85;;;0.93;;
65230;SDS011;51813;40.666;16.602;2022-09-03T16:37:03;1.77;;;1.00;;
65230;SDS011;51813;40.666;16.602;2022-09-03T17:17:27;2.35;;;0.90;;
65230;SDS011;51813;40.666;16.602;2022-09-03T17:20:14;1.45;;;0.95;;
65230;SDS011;51813;40.666;16.602;2022-09-03T17:23:05;1.70;;;1.00;;
65230;SDS011;51813;40.666;16.602;2022-09-03T17:25:55;2.20;;;1.00;;
65230;SDS011;51813;40.666;16.602;2022-09-03T17:28:45;2.10;;;1.20;;
65230;SDS011;51813;40.666;16.602;2022-09-03T17:42:40;2.03;;;1.10;;
65230;SDS011;51813;40.666;16.602;2022-09-03T17:50:52;1.90;;;1.10;;
65230;SDS011;51813;40.666;16.602;2022-09-03T17:59:18;1.95;;;1.00;;
65230;SDS011;51813;40.666;16.602;2022-09-03T18:02:03;2.63;;;1.00;;
65230;SDS011;51813;40.666;16.602;2022-09-03T18:07:23;1.60;;;1.00;;
65230;SDS011;51813;40.666;16.602;2022-09-03T18:10:01;3.60;;;1.10;;
65230;SDS011;51813;40.666;16.602;2022-09-03T18:15:47;2.35;;;1.08;;
65230;SDS011;51813;40.666;16.602;2022-09-03T18:18:10;2.45;;;1.00;;
65230;SDS011;51813;40.666;16.602;2022-09-03T18:20:45;1.95;;;1.10;;
65230;SDS011;51813;40.666;16.602;2022-09-03T18:26:44;2.30;;;1.13;;
65230;SDS011;51813;40.666;16.602;2022-09-03T18:29:38;3.60;;;1.23;;
65230;SDS011;51813;40.666;16.602;2022-09-03T18:32:25;3.08;;;1.05;;
65230;SDS011;51813;40.666;16.602;2022-09-03T18:35:12;2.90;;;1.17;;
65230;SDS011;51813;40.666;16.602;2022-09-03T18:37:56;1.77;;;1.00;;
65230;SDS011;51813;40.666;16.602;2022-09-03T18:41:04;2.22;;;1.27;;
65230;SDS011;51813;40.666;16.602;2022-09-03T18:44:03;1.98;;;1.20;;
65230;SDS011;51813;40.666;16.602;2022-09-03T18:49:45;2.10;;;1.17;;
65230;SDS011;51813;40.666;16.602;2022-09-03T18:52:59;2.00;;;1.05;;
65230;SDS011;51813;40.666;16.602;2022-09-03T18:55:59;2.13;;;1.30;;
65230;SDS011;51813;40.666;16.602;2022-09-03T19:01:52;1.90;;;1.00;;
65230;SDS011;51813;40.666;16.602;2022-09-03T19:05:00;2.05;;;1.17;;
65230;SDS011;51813;40.666;16.602;2022-09-03T19:11:02;2.42;;;1.20;;
65230;SDS011;51813;40.666;16.602;2022-09-03T19:13:55;2.42;;;1.00;;
65230;SDS011;51813;40.666;16.602;2022-09-03T19:22:52;2.30;;;1.20;;
65230;SDS011;51813;40.666;16.602;2022-09-03T19:25:36;3.67;;;1.30;;
65230;SDS011;51813;40.666;16.602;2022-09-03T19:28:22;2.42;;;1.10;;
65230;SDS011;51813;40.666;16.602;2022-09-03T19:44:07;2.92;;;1.27;;
65230;SDS011;51813;40.666;16.602;2022-09-03T19:46:57;2.75;;;1.38;;
65230;SDS011;51813;40.666;16.602;2022-09-03T19:55:29;2.95;;;1.30;;
65230;SDS011;51813;40.666;16.602;2022-09-03T19:58:17;2.05;;;1.20;;
65230;SDS011;51813;40.666;16.602;2022-09-03T20:01:04;2.75;;;1.50;;
65230;SDS011;51813;40.666;16.602;2022-09-03T20:03:49;2.90;;;1.30;;
65230;SDS011;51813;40.666;16.602;2022-09-03T20:06:34;3.90;;;1.50;;
65230;SDS011;51813;40.666;16.602;2022-09-03T20:09:21;1.98;;;1.10;;
65230;SDS011;51813;40.666;16.602;2022-09-03T20:12:13;2.10;;;1.30;;
65230;SDS011;51813;40.666;16.602;2022-09-03T20:14:43;2.65;;;1.23;;
65230;SDS011;51813;40.666;16.602;2022-09-03T20:17:13;2.83;;;1.40;;
65230;SDS011;51813;40.666;16.602;2022-09-03T20:20:14;1.73;;;1.00;;
65230;SDS011;51813;40.666;16.602;2022-09-03T20:23:09;2.30;;;1.30;;
65230;SDS011;51813;40.666;16.602;2022-09-03T20:42:02;1.95;;;1.20;;
65230;SDS011;51813;40.666;16.602;2022-09-03T20:45:45;1.88;;;1.20;;
65230;SDS011;51813;40.666;16.602;2022-09-03T20:53:29;2.08;;;1.38;;
65230;SDS011;51813;40.666;16.602;2022-09-03T20:58:43;2.92;;;1.20;;
65230;SDS011;51813;40.666;16.602;2022-09-03T21:01:33;2.60;;;1.27;;
65230;SDS011;51813;40.666;16.602;2022-09-03T21:06:43;2.20;;;1.33;;
65230;SDS011;51813;40.666;16.602;2022-09-03T21:19:59;2.53;;;1.40;;
65230;SDS011;51813;40.666;16.602;2022-09-03T21:25:22;2.10;;;1.25;;
65230;SDS011;51813;40.666;16.602;2022-09-03T21:30:40;2.67;;;1.27;;
65230;SDS011;51813;40.666;16.602;2022-09-03T21:33:12;2.50;;;1.40;;
65230;SDS011;51813;40.666;16.602;2022-09-03T21:35:59;1.92;;;1.30;;
65230;SDS011;51813;40.666;16.602;2022-09-03T21:38:32;2.65;;;1.42;;
65230;SDS011;51813;40.666;16.602;2022-09-03T21:43:32;2.75;;;1.30;;
65230;SDS011;51813;40.666;16.602;2022-09-03T21:51:11;2.50;;;1.30;;
65230;SDS011;51813;40.666;16.602;2022-09-03T21:53:48;2.65;;;1.20;;
65230;SDS011;51813;40.666;16.602;2022-09-03T22:04:49;2.97;;;1.52;;
65230;SDS011;51813;40.666;16.602;2022-09-03T22:07:34;2.50;;;1.42;;